Time;durP1;ratioP1;P1;durP2;ratioP2;P2;SDS_P1;SDS_P2;PMS_P1;PMS_P2;Temp;Humidity;BMP_temperature;BMP_pressure;BME280_temperature;BME280_humidity;BME280_pressure;Samples;Min_cycle;Max_cycle;Signal;HPM_P1;HPM_P2
2023/03/25 00:01:00;;;;;;;11.18;2.33;;;10.50;99.90;;;;;;4994222;28;20057;-81
2023/03/25 00:03:32;;;;;;;6.28;0.85;;;10.40;99.90;;;;;;5008926;28;20038;-82
2023/03/25 00:05:58;;;;;;;7.85;1.30;;;10.40;99.90;;;;;;4979293;28;20141;-82
2023/03/25 00:08:25;;;;;;;13.52;1.50;;;10.40;99.90;;;;;;4994312;28;20453;-81
2023/03/25 00:10:56;;;;;;;12.40;1.60;;;10.40;99.90;;;;;;5010535;28;20107;-81
2023/03/25 00:13:22;;;;;;;7.03;1.33;;;10.40;99.90;;;;;;4994173;28;20445;-81
2023/03/25 00:15:52;;;;;;;7.63;1.42;;;10.40;99.90;;;;;;4994075;28;20038;-81
2023/03/25 00:18:19;;;;;;;16.67;1.67;;;10.40;99.90;;;;;;5010051;28;20120;-81
2023/03/25 00:20:48;;;;;;;10.48;1.25;;;10.50;99.90;;;;;;4994111;28;20490;-81
2023/03/25 00:23:15;;;;;;;7.75;1.42;;;10.50;99.90;;;;;;4978498;28;20045;-81
2023/03/25 00:25:43;;;;;;;8.10;1.60;;;10.50;99.90;;;;;;5010213;28;20064;-80
2023/03/25 00:28:14;;;;;;;7.72;1.80;;;10.50;99.90;;;;;;5010308;28;20140;-81
2023/03/25 00:30:41;;;;;;;13.57;2.45;;;10.40;99.90;;;;;;4994047;28;20395;-81
2023/03/25 00:33:12;;;;;;;6.80;1.27;;;10.30;99.90;;;;;;4977663;28;20034;-81
2023/03/25 00:35:43;;;;;;;6.90;1.13;;;10.20;99.90;;;;;;4994056;28;20038;-81
2023/03/25 00:38:12;;;;;;;12.98;1.60;;;10.20;99.90;;;;;;4981733;28;20044;-81
2023/03/25 00:40:38;;;;;;;13.15;1.45;;;10.20;99.90;;;;;;4989057;28;20093;-81
2023/03/25 00:43:05;;;;;;;8.30;1.30;;;10.20;99.90;;;;;;4987538;28;20088;-81
2023/03/25 00:45:32;;;;;;;10.48;1.73;;;9.70;99.90;;;;;;5010053;28;20112;-81
2023/03/25 00:47:57;;;;;;;12.20;2.17;;;10.20;99.90;;;;;;5010134;28;20144;-81
2023/03/25 00:50:23;;;;;;;6.60;1.50;;;10.10;99.90;;;;;;5009483;28;20133;-81
2023/03/25 00:52:50;;;;;;;10.38;1.92;;;10.10;99.90;;;;;;4993806;28;20069;-81
2023/03/25 00:55:17;;;;;;;9.88;1.42;;;10.10;99.90;;;;;;4993547;28;20104;-83
2023/03/25 00:57:43;;;;;;;5.90;1.58;;;10.10;99.90;;;;;;4977606;28;20069;-81
2023/03/25 01:00:11;;;;;;;9.30;1.60;;;10.10;99.90;;;;;;5009783;28;20502;-81
2023/03/25 01:02:38;;;;;;;9.32;1.48;;;10.00;99.90;;;;;;4993753;28;20500;-81
2023/03/25 01:05:04;;;;;;;11.02;2.38;;;9.90;99.90;;;;;;4993447;28;20095;-81
2023/03/25 01:07:31;;;;;;;11.15;1.80;;;9.90;99.90;;;;;;4993421;28;20041;-80
2023/03/25 01:09:58;;;;;;;7.57;1.55;;;9.90;99.90;;;;;;5009414;28;20033;-79
2023/03/25 01:12:25;;;;;;;13.25;1.73;;;9.70;99.90;;;;;;5005624;28;20050;-80
2023/03/25 01:14:51;;;;;;;10.90;2.08;;;9.60;99.90;;;;;;4976932;28;20046;-80
2023/03/25 01:17:18;;;;;;;;;;;9.60;99.90;;;;;;4993258;28;20030;-80
2023/03/25 01:19:44;;;;;;;16.67;2.40;;;9.50;99.90;;;;;;4993133;28;19917;-80
2023/03/25 01:22:10;;;;;;;12.82;1.95;;;9.40;99.90;;;;;;5009288;28;20049;-80
2023/03/25 01:24:36;;;;;;;15.52;2.67;;;9.40;99.90;;;;;;4977270;28;20563;-79
2023/03/25 01:27:02;;;;;;;16.20;2.25;;;9.40;99.90;;;;;;4993090;28;20129;-79
2023/03/25 01:29:29;;;;;;;7.38;1.60;;;9.30;99.90;;;;;;4992584;28;20042;-80
2023/03/25 01:31:55;;;;;;;13.05;1.90;;;9.30;99.90;;;;;;4993223;28;20038;-80
2023/03/25 01:34:21;;;;;;;17.02;2.05;;;9.30;99.90;;;;;;4993915;28;20052;-80
2023/03/25 01:36:47;;;;;;;11.05;1.70;;;9.30;99.90;;;;;;4993806;28;20513;-80
2023/03/25 01:39:15;;;;;;;13.82;2.10;;;9.40;99.90;;;;;;4994079;28;20035;-79
2023/03/25 01:41:42;;;;;;;19.35;5.40;;;9.30;99.90;;;;;;5010847;28;20482;-80
2023/03/25 01:44:17;;;;;;;12.55;1.95;;;9.30;99.90;;;;;;5010409;28;20041;-80
2023/03/25 01:46:44;;;;;;;14.73;1.92;;;9.30;99.90;;;;;;5010986;28;20509;-80
2023/03/25 01:49:25;;;;;;;9.48;1.90;;;9.30;99.90;;;;;;4993417;28;20049;-80
2023/03/25 01:52:06;;;;;;;16.75;2.83;;;9.30;99.90;;;;;;5009263;28;20385;-80
2023/03/25 01:54:33;;;;;;;11.48;2.15;;;9.30;99.90;;;;;;4991589;28;20092;-80
2023/03/25 01:56:58;;;;;;;14.82;2.13;;;9.30;99.90;;;;;;5009199;28;20043;-80
2023/03/25 01:59:27;;;;;;;18.13;2.60;;;9.30;99.90;;;;;;5008810;28;20091;-80
2023/03/25 02:01:55;;;;;;;16.45;2.08;;;9.30;99.90;;;;;;4993067;28;20038;-79
2023/03/25 02:04:33;;;;;;;17.60;1.88;;;9.20;99.90;;;;;;4992132;28;20034;-79
2023/03/25 02:06:59;;;;;;;22.23;2.13;;;9.30;99.90;;;;;;5007213;28;20064;-80
2023/03/25 02:09:26;;;;;;;14.70;2.88;;;9.30;99.90;;;;;;4992159;28;20045;-80
2023/03/25 02:11:53;;;;;;;;;;;9.20;99.90;;;;;;5009697;28;20038;-80
2023/03/25 02:14:26;;;;;;;12.88;2.35;;;9.30;99.90;;;;;;4992566;28;19924;-80
2023/03/25 02:17:20;;;;;;;16.50;2.40;;;9.20;99.90;;;;;;4992737;28;20034;-80
2023/03/25 02:20:23;;;;;;;15.85;2.67;;;9.30;99.90;;;;;;4992063;28;20042;-80
2023/03/25 02:22:51;;;;;;;12.48;1.92;;;9.20;99.90;;;;;;5006591;28;20113;-80
2023/03/25 02:25:44;;;;;;;19.25;2.58;;;9.20;99.90;;;;;;5011574;28;20084;-80
2023/03/25 02:28:35;;;;;;;15.10;2.53;;;9.20;99.90;;;;;;5012392;28;20473;-80
2023/03/25 02:31:03;;;;;;;17.88;2.17;;;9.20;99.90;;;;;;5012539;28;20041;-80
2023/03/25 02:34:03;;;;;;;20.08;2.10;;;9.30;99.90;;;;;;4995574;28;20153;-80
2023/03/25 02:37:02;;;;;;;14.55;3.05;;;9.30;99.90;;;;;;5011974;28;20056;-80
2023/03/25 02:39:51;;;;;;;18.48;2.72;;;9.20;99.90;;;;;;5011572;28;20078;-80
2023/03/25 02:42:43;;;;;;;17.48;3.47;;;9.30;99.90;;;;;;4994024;28;20120;-80
2023/03/25 02:45:24;;;;;;;15.45;3.28;;;9.40;99.90;;;;;;5013095;28;20052;-80
2023/03/25 02:47:58;;;;;;;15.48;2.15;;;9.30;99.90;;;;;;5011161;28;20117;-80
2023/03/25 02:50:50;;;;;;;17.63;2.42;;;9.30;99.90;;;;;;5009412;28;20052;-80
2023/03/25 02:53:22;;;;;;;16.65;3.17;;;9.40;99.90;;;;;;4994767;28;20554;-80
2023/03/25 02:55:50;;;;;;;15.60;2.42;;;9.30;99.90;;;;;;4995541;28;20041;-80
2023/03/25 02:58:18;;;;;;;18.83;2.55;;;9.30;99.90;;;;;;4995441;28;20776;-80
2023/03/25 03:00:45;;;;;;;11.40;1.88;;;9.30;99.90;;;;;;5012018;28;20042;-80
2023/03/25 03:03:11;;;;;;;14.32;2.33;;;9.40;99.90;;;;;;4995667;28;20411;-80
2023/03/25 03:05:44;;;;;;;11.05;2.22;;;9.40;99.90;;;;;;4994052;28;20076;-80
2023/03/25 03:08:48;;;;;;;12.95;1.77;;;9.40;99.90;;;;;;5010580;28;20034;-80
2023/03/25 03:11:58;;;;;;;17.40;2.20;;;9.40;99.90;;;;;;4950342;28;20509;-80
2023/03/25 03:14:50;;;;;;;15.05;2.35;;;9.40;99.90;;;;;;5004744;28;20050;-80
2023/03/25 03:17:28;;;;;;;12.18;1.90;;;9.40;99.90;;;;;;4989367;28;20053;-81
2023/03/25 03:20:16;;;;;;;14.30;2.65;;;9.40;99.90;;;;;;5011163;28;20046;-80
2023/03/25 03:22:52;;;;;;;13.93;2.90;;;9.40;99.90;;;;;;5011885;28;20048;-80
2023/03/25 03:25:27;;;;;;;15.25;2.33;;;9.40;99.90;;;;;;5009932;28;20058;-80
2023/03/25 03:28:06;;;;;;;20.88;2.63;;;9.40;99.90;;;;;;5009887;28;20056;-80
2023/03/25 03:31:05;;;;;;;16.42;1.70;;;9.40;99.90;;;;;;5011984;28;20128;-79
2023/03/25 03:33:39;;;;;;;10.07;1.42;;;9.50;99.90;;;;;;5011163;28;20121;-80
2023/03/25 03:36:12;;;;;;;12.60;1.50;;;9.50;99.90;;;;;;5009971;28;20049;-79
2023/03/25 03:39:04;;;;;;;9.57;1.45;;;9.60;99.90;;;;;;5010607;28;20041;-79
2023/03/25 03:41:34;;;;;;;20.92;2.60;;;9.60;99.90;;;;;;4994265;28;20065;-79
2023/03/25 03:44:06;;;;;;;14.50;1.98;;;9.50;99.90;;;;;;5010878;28;20038;-79
2023/03/25 03:46:42;;;;;;;15.55;2.10;;;9.40;99.90;;;;;;4994168;28;20129;-79
2023/03/25 03:49:14;;;;;;;18.58;2.22;;;9.40;99.90;;;;;;4994888;28;20037;-79
2023/03/25 03:51:52;;;;;;;13.55;1.90;;;9.40;99.90;;;;;;4996013;28;20490;-80
2023/03/25 03:54:22;;;;;;;13.43;1.83;;;9.40;99.90;;;;;;5006740;28;20057;-79
2023/03/25 03:56:54;;;;;;;20.60;2.53;;;9.40;99.90;;;;;;4995263;28;20121;-79
2023/03/25 03:59:36;;;;;;;14.13;2.20;;;9.30;99.90;;;;;;5011685;28;20042;-79
2023/03/25 04:02:06;;;;;;;14.73;1.80;;;9.40;99.90;;;;;;4995353;28;20385;-79
2023/03/25 04:04:33;;;;;;;16.92;2.50;;;9.30;99.90;;;;;;4993000;28;20069;-79
2023/03/25 04:07:14;;;;;;;14.65;2.08;;;9.20;99.90;;;;;;4994635;28;20038;-79
2023/03/25 04:09:55;;;;;;;13.68;2.08;;;9.20;99.90;;;;;;5010049;28;20427;-79
2023/03/25 04:12:37;;;;;;;13.38;2.08;;;9.10;99.90;;;;;;5008350;28;20029;-79
2023/03/25 04:15:05;;;;;;;11.30;1.98;;;9.10;99.90;;;;;;5008511;28;20038;-80
2023/03/25 04:17:34;;;;;;;20.30;2.92;;;9.10;99.90;;;;;;4993687;28;20034;-80
2023/03/25 04:20:05;;;;;;;16.05;2.15;;;9.00;99.90;;;;;;5010325;28;20060;-80
2023/03/25 04:22:31;;;;;;;10.70;1.98;;;9.00;99.90;;;;;;5007677;28;20046;-80
2023/03/25 04:24:59;;;;;;;12.88;2.38;;;9.10;99.90;;;;;;5010367;28;20060;-80
2023/03/25 04:27:28;;;;;;;15.35;2.47;;;9.10;99.90;;;;;;5009925;28;20077;-80
2023/03/25 04:29:56;;;;;;;11.68;2.22;;;9.10;99.90;;;;;;5010274;28;20486;-80
2023/03/25 04:32:22;;;;;;;13.00;2.28;;;9.10;99.90;;;;;;5010088;28;20030;-80
2023/03/25 04:34:48;;;;;;;18.67;2.42;;;9.10;99.90;;;;;;5010186;28;20123;-80
2023/03/25 04:37:14;;;;;;;16.50;2.80;;;9.10;99.90;;;;;;5010169;28;20517;-80
2023/03/25 04:39:40;;;;;;;18.25;3.15;;;9.10;99.90;;;;;;5009630;28;20042;-80
2023/03/25 04:42:06;;;;;;;18.25;2.88;;;9.10;99.90;;;;;;4993866;28;20478;-79
2023/03/25 04:44:38;;;;;;;15.60;2.55;;;9.10;99.90;;;;;;4977610;28;20034;-77
2023/03/25 04:47:08;;;;;;;17.23;2.72;;;9.10;99.90;;;;;;5002311;28;20062;-79
2023/03/25 04:49:34;;;;;;;16.30;2.85;;;9.00;99.90;;;;;;4993072;28;20037;-79
2023/03/25 04:52:01;;;;;;;23.40;3.00;;;9.00;99.90;;;;;;4993469;28;20505;-80
2023/03/25 04:54:27;;;;;;;21.60;2.60;;;8.90;99.90;;;;;;4961179;28;20293;-79
2023/03/25 04:56:52;;;;;;;16.73;3.42;;;8.90;99.90;;;;;;5009685;28;20042;-79
2023/03/25 04:59:20;;;;;;;15.43;2.30;;;8.90;99.90;;;;;;4993321;28;20049;-79
2023/03/25 05:01:46;;;;;;;17.73;2.42;;;8.90;99.90;;;;;;5007256;28;20099;-79
2023/03/25 05:04:17;;;;;;;21.40;2.78;;;8.90;99.90;;;;;;4993491;28;20113;-79
2023/03/25 05:06:49;;;;;;;20.45;2.90;;;8.80;99.90;;;;;;5009313;28;20045;-79
2023/03/25 05:09:18;;;;;;;22.15;2.67;;;8.90;99.90;;;;;;4993525;28;20045;-78
2023/03/25 05:11:45;;;;;;;14.02;2.63;;;8.90;99.90;;;;;;4993401;28;20037;-79
2023/03/25 05:14:13;;;;;;;18.27;2.30;;;8.90;99.90;;;;;;4977431;28;20042;-80
2023/03/25 05:16:39;;;;;;;18.10;2.50;;;8.90;99.90;;;;;;5009177;28;20042;-79
2023/03/25 05:19:05;;;;;;;20.17;2.67;;;8.90;99.90;;;;;;4993320;28;20117;-79
2023/03/25 05:21:35;;;;;;;15.73;2.50;;;8.90;99.90;;;;;;4990358;28;20041;-80
2023/03/25 05:24:01;;;;;;;13.93;2.15;;;8.90;99.90;;;;;;4993659;28;20092;-80
2023/03/25 05:26:33;;;;;;;13.48;2.28;;;8.90;99.90;;;;;;5009026;28;20096;-80
2023/03/25 05:29:07;;;;;;;19.75;2.72;;;9.00;99.90;;;;;;4994137;28;20046;-80
2023/03/25 05:31:34;;;;;;;15.43;2.50;;;9.00;99.90;;;;;;5009234;28;20513;-80
2023/03/25 05:34:00;;;;;;;;;;;9.10;99.90;;;;;;5009958;28;20498;-80
2023/03/25 05:36:26;;;;;;;15.25;2.67;;;9.00;99.90;;;;;;5009287;28;19928;-80
2023/03/25 05:38:57;;;;;;;15.63;2.58;;;9.00;99.90;;;;;;4992796;28;20546;-80
2023/03/25 05:41:31;;;;;;;14.88;2.72;;;9.00;99.90;;;;;;5009263;28;20085;-80
2023/03/25 05:43:59;;;;;;;18.30;3.05;;;9.00;99.90;;;;;;4994071;28;20042;-80
2023/03/25 05:46:27;;;;;;;18.80;2.53;;;9.00;99.90;;;;;;5007142;28;20046;-80
2023/03/25 05:48:56;;;;;;;13.32;2.53;;;9.00;99.90;;;;;;4993730;28;20104;-80
2023/03/25 05:51:23;;;;;;;13.18;2.53;;;9.10;99.90;;;;;;5009299;28;20050;-80
2023/03/25 05:53:49;;;;;;;21.55;2.40;;;9.10;99.90;;;;;;4976792;28;20474;-80
2023/03/25 05:56:19;;;;;;;16.02;2.30;;;9.10;99.90;;;;;;5009227;28;20046;-81
2023/03/25 05:58:49;;;;;;;12.30;2.85;;;9.10;99.90;;;;;;4993979;28;20367;-80
2023/03/25 06:01:16;;;;;;;13.27;2.63;;;9.20;99.90;;;;;;4996694;28;20052;-80
2023/03/25 06:03:43;;;;;;;24.75;2.45;;;9.20;99.90;;;;;;4996657;28;20057;-80
2023/03/25 06:06:12;;;;;;;;;;;9.10;99.90;;;;;;5014149;28;20521;-80
2023/03/25 06:08:42;;;;;;;15.00;2.13;;;9.10;99.90;;;;;;4995047;28;19917;-80
2023/03/25 06:11:12;;;;;;;15.68;2.88;;;9.10;99.90;;;;;;5013356;28;20038;-80
2023/03/25 06:13:39;;;;;;;24.80;4.82;;;9.40;99.90;;;;;;5012708;28;20049;-80
2023/03/25 06:16:07;;;;;;;9.85;2.05;;;9.00;99.90;;;;;;4994638;28;20092;-80
2023/03/25 06:18:34;;;;;;;20.98;3.40;;;9.10;99.90;;;;;;4996733;28;20034;-80
2023/03/25 06:20:59;;;;;;;18.25;2.35;;;9.10;99.90;;;;;;4981036;28;20053;-80
2023/03/25 06:23:26;;;;;;;15.97;2.90;;;9.00;99.90;;;;;;4996340;28;20038;-80
2023/03/25 06:25:53;;;;;;;14.80;2.40;;;9.10;99.90;;;;;;5013321;28;20319;-80
2023/03/25 06:28:18;;;;;;;;;;;9.10;99.90;;;;;;4997950;28;20053;-79
2023/03/25 06:30:45;;;;;;;16.15;2.35;;;9.10;99.90;;;;;;4996738;28;19917;-80
2023/03/25 06:33:12;;;;;;;13.07;2.38;;;9.20;99.90;;;;;;4997237;28;20050;-80
2023/03/25 06:35:41;;;;;;;22.35;3.13;;;9.20;99.90;;;;;;4979430;28;20069;-80
2023/03/25 06:38:08;;;;;;;22.85;2.58;;;9.20;99.90;;;;;;5012483;28;20042;-80
2023/03/25 06:40:36;;;;;;;16.10;2.55;;;9.20;99.90;;;;;;4963598;28;20048;-80
2023/03/25 06:43:04;;;;;;;12.50;2.53;;;9.20;99.90;;;;;;4996096;28;20034;-83
2023/03/25 06:45:30;;;;;;;13.07;2.80;;;9.20;99.90;;;;;;4995823;28;20116;-79
2023/03/25 06:47:56;;;;;;;17.05;3.85;;;9.10;99.90;;;;;;5012234;28;20042;-79
2023/03/25 06:50:22;;;;;;;13.63;2.08;;;9.10;99.90;;;;;;4980304;28;20549;-78
2023/03/25 06:52:47;;;;;;;13.97;3.13;;;9.00;99.90;;;;;;4996113;28;20046;-79
2023/03/25 06:55:13;;;;;;;11.65;1.98;;;9.10;99.90;;;;;;4995950;28;20648;-78
2023/03/25 06:57:40;;;;;;;12.05;2.20;;;9.10;99.90;;;;;;5012776;28;20351;-79
2023/03/25 07:00:07;;;;;;;15.38;2.08;;;9.20;99.90;;;;;;4996349;28;20030;-78
2023/03/25 07:02:33;;;;;;;8.77;1.60;;;9.30;99.90;;;;;;5012757;28;20049;-78
2023/03/25 07:04:59;;;;;;;19.73;2.30;;;9.30;99.90;;;;;;4998092;28;20446;-78
2023/03/25 07:07:25;;;;;;;15.70;2.80;;;9.30;99.90;;;;;;4997799;28;20042;-79
2023/03/25 07:09:53;;;;;;;13.75;2.65;;;9.30;99.90;;;;;;4997000;28;20038;-78
2023/03/25 07:12:20;;;;;;;10.75;2.30;;;9.40;99.90;;;;;;4997062;28;20455;-78
2023/03/25 07:14:52;;;;;;;;;;;9.40;99.90;;;;;;5013141;28;20034;-78
2023/03/25 07:17:18;;;;;;;16.02;2.03;;;9.50;99.90;;;;;;5010612;28;20428;-78
2023/03/25 07:19:44;;;;;;;11.77;2.00;;;9.60;99.90;;;;;;4996415;28;20073;-78
2023/03/25 07:22:09;;;;;;;12.13;1.92;;;9.80;99.90;;;;;;4995790;28;20117;-79
2023/03/25 07:24:35;;;;;;;13.13;2.05;;;9.90;99.90;;;;;;4996177;28;20061;-78
2023/03/25 07:27:01;;;;;;;11.53;2.10;;;9.90;99.90;;;;;;4995365;28;20491;-79
2023/03/25 07:29:26;;;;;;;20.38;1.88;;;9.80;99.90;;;;;;4995441;28;20681;-77
2023/03/25 07:31:52;;;;;;;8.98;1.63;;;9.70;99.90;;;;;;4994926;28;20467;-80
2023/03/25 07:34:18;;;;;;;16.33;1.75;;;9.60;99.90;;;;;;5012196;28;20096;-80
2023/03/25 07:36:44;;;;;;;11.65;2.42;;;9.50;99.90;;;;;;4995801;28;20112;-80
2023/03/25 07:39:09;;;;;;;18.50;2.55;;;9.50;99.90;;;;;;5012024;28;20137;-77
2023/03/25 07:41:35;;;;;;;13.32;3.10;;;9.50;99.90;;;;;;5011549;28;20042;-79
2023/03/25 07:44:01;;;;;;;12.00;1.90;;;9.40;99.90;;;;;;5011361;28;20041;-79
2023/03/25 07:46:26;;;;;;;13.43;1.55;;;9.30;99.90;;;;;;5011326;28;20049;-79
2023/03/25 07:48:52;;;;;;;11.40;2.28;;;9.30;99.90;;;;;;5012870;28;20572;-78
2023/03/25 07:51:18;;;;;;;9.17;1.30;;;9.20;99.90;;;;;;4994985;28;20046;-78
2023/03/25 07:53:45;;;;;;;7.50;1.30;;;9.00;99.90;;;;;;5010964;28;20320;-79
2023/03/25 07:56:12;;;;;;;9.75;1.95;;;8.90;99.90;;;;;;5003453;28;20042;-78
2023/03/25 07:58:38;;;;;;;13.23;2.22;;;8.90;99.90;;;;;;4985408;28;20038;-79
2023/03/25 08:01:04;;;;;;;15.57;2.10;;;8.80;99.90;;;;;;5009974;28;20037;-79
2023/03/25 08:03:32;;;;;;;;;;;8.90;99.90;;;;;;4991612;28;20038;-79
2023/03/25 08:06:00;;;;;;;16.63;1.88;;;8.90;99.90;;;;;;4991912;28;19917;-79
2023/03/25 08:08:28;;;;;;;10.98;1.95;;;8.90;99.90;;;;;;5003473;28;20050;-79
2023/03/25 08:10:55;;;;;;;11.30;1.65;;;8.80;99.90;;;;;;4999209;28;20050;-79
2023/03/25 08:13:21;;;;;;;7.85;1.52;;;8.90;99.90;;;;;;5006525;28;20108;-79
2023/03/25 08:15:47;;;;;;;10.50;1.67;;;8.90;99.90;;;;;;5011063;28;20461;-79
2023/03/25 08:18:13;;;;;;;11.82;1.88;;;8.90;99.90;;;;;;5007745;28;20131;-79
2023/03/25 08:20:38;;;;;;;6.78;1.25;;;8.90;99.90;;;;;;4994755;28;20069;-79
2023/03/25 08:23:09;;;;;;;9.57;1.35;;;8.90;99.90;;;;;;4994339;28;20382;-79
2023/03/25 08:25:40;;;;;;;7.05;0.98;;;8.90;99.90;;;;;;5011182;28;20080;-79
2023/03/25 08:28:07;;;;;;;6.18;1.17;;;8.90;99.90;;;;;;5011040;28;20048;-79
2023/03/25 08:30:38;;;;;;;;;;;9.00;99.90;;;;;;5008691;28;20064;-79
2023/03/25 08:33:09;;;;;;;13.80;2.22;;;9.00;99.90;;;;;;5011689;28;19983;-80
2023/03/25 08:35:36;;;;;;;13.23;1.83;;;9.10;99.90;;;;;;5011325;28;20107;-79
2023/03/25 08:38:04;;;;;;;11.82;1.80;;;9.10;99.90;;;;;;4995078;28;20545;-78
2023/03/25 08:40:33;;;;;;;12.30;2.15;;;9.20;99.90;;;;;;4988621;28;20034;-78
2023/03/25 08:43:02;;;;;;;10.95;2.10;;;9.30;99.90;;;;;;4993196;28;20105;-78
2023/03/25 08:45:27;;;;;;;13.02;1.70;;;9.30;99.90;;;;;;4993947;28;20520;-78
2023/03/25 08:47:53;;;;;;;11.00;2.15;;;9.40;99.90;;;;;;4994108;28;20050;-79
2023/03/25 08:50:19;;;;;;;9.48;2.00;;;9.50;99.90;;;;;;5000160;28;20052;-80
2023/03/25 08:52:46;;;;;;;12.02;2.20;;;9.70;99.90;;;;;;4996104;28;20092;-79
2023/03/25 08:55:15;;;;;;;12.68;2.35;;;9.90;99.90;;;;;;4995599;28;20045;-79
2023/03/25 08:57:41;;;;;;;14.85;2.53;;;10.00;99.90;;;;;;5012256;28;20449;-79
2023/03/25 09:00:25;;;;;;;14.40;1.88;;;9.90;99.90;;;;;;5014310;28;20136;-79
2023/03/25 09:02:50;;;;;;;17.45;2.20;;;9.80;99.90;;;;;;4992135;28;20084;-79
2023/03/25 09:05:17;;;;;;;17.13;2.42;;;9.60;99.90;;;;;;5010746;28;20498;-79
2023/03/25 09:07:43;;;;;;;11.55;2.45;;;9.40;99.90;;;;;;5010838;28;20046;-79
2023/03/25 09:10:09;;;;;;;16.65;2.25;;;9.40;99.90;;;;;;5011001;28;20036;-79
2023/03/25 09:12:35;;;;;;;11.20;2.05;;;9.40;99.90;;;;;;4994953;28;20044;-79
2023/03/25 09:15:01;;;;;;;15.02;2.00;;;9.40;99.90;;;;;;4978775;28;20033;-80
2023/03/25 09:17:26;;;;;;;13.85;2.30;;;9.50;99.90;;;;;;5011640;28;20046;-80
2023/03/25 09:19:52;;;;;;;21.08;2.58;;;9.70;99.90;;;;;;4995063;28;20120;-81
2023/03/25 09:22:18;;;;;;;11.13;1.73;;;9.80;99.90;;;;;;5010877;28;20069;-78
2023/03/25 09:24:44;;;;;;;12.20;1.30;;;9.90;99.90;;;;;;4993918;28;20388;-81
2023/03/25 09:27:10;;;;;;;;;;;9.90;99.90;;;;;;5010856;28;20084;-81
2023/03/25 09:29:36;;;;;;;9.30;1.15;;;10.00;99.90;;;;;;4994594;28;20373;-80
2023/03/25 09:32:01;;;;;;;14.60;1.90;;;10.00;99.90;;;;;;4994716;28;20042;-79
2023/03/25 09:34:27;;;;;;;13.00;1.75;;;10.10;99.90;;;;;;5012933;28;20141;-80
2023/03/25 09:36:54;;;;;;;9.45;1.58;;;10.20;99.90;;;;;;4992615;28;20133;-79
2023/03/25 09:39:20;;;;;;;10.75;2.25;;;10.60;99.90;;;;;;4998045;28;20025;-79
2023/03/25 09:42:09;;;;;;;12.93;1.33;;;10.90;99.90;;;;;;4998461;28;20482;-79
2023/03/25 09:44:54;;;;;;;10.98;1.85;;;11.30;99.90;;;;;;5011697;28;20431;-79
2023/03/25 09:47:22;;;;;;;7.25;1.35;;;11.40;99.90;;;;;;5012255;28;20034;-79
2023/03/25 09:49:54;;;;;;;11.88;1.63;;;11.30;99.90;;;;;;4998150;28;20033;-79
2023/03/25 09:52:26;;;;;;;12.65;2.15;;;11.10;99.90;;;;;;4996231;28;20041;-80
2023/03/25 09:55:08;;;;;;;7.43;1.30;;;11.00;99.90;;;;;;5014559;28;20076;-80
2023/03/25 09:57:44;;;;;;;14.02;1.65;;;11.00;99.90;;;;;;5013967;28;20128;-79
2023/03/25 10:00:17;;;;;;;11.45;2.78;;;10.90;99.90;;;;;;5014493;28;20100;-80
2023/03/25 10:03:00;;;;;;;9.77;1.38;;;10.80;99.90;;;;;;5014855;28;20030;-78
2023/03/25 10:05:53;;;;;;;10.68;1.45;;;11.10;99.90;;;;;;5000833;28;20092;-82
2023/03/25 10:08:40;;;;;;;13.55;1.85;;;11.20;99.90;;;;;;4996801;28;20568;-80
2023/03/25 10:11:58;;;;;;;12.38;2.25;;;11.10;99.90;;;;;;4996029;28;20124;-81
2023/03/25 10:14:40;;;;;;;9.23;1.67;;;10.90;99.90;;;;;;4942685;28;20054;-80
2023/03/25 10:17:30;;;;;;;10.40;1.70;;;11.00;99.90;;;;;;5014044;28;20049;-81
2023/03/25 10:20:05;;;;;;;4.95;1.38;;;11.10;99.90;;;;;;4997123;28;20037;-85
2023/03/25 10:22:51;;;;;;;10.25;1.67;;;11.00;99.90;;;;;;5015714;28;20112;-83
2023/03/25 10:25:23;;;;;;;8.90;1.80;;;11.10;99.90;;;;;;4997783;28;20072;-81
2023/03/25 10:27:51;;;;;;;14.07;1.95;;;11.10;99.90;;;;;;5012504;28;20046;-81
2023/03/25 10:30:42;;;;;;;9.88;1.85;;;11.10;99.90;;;;;;5013429;28;20079;-81
2023/03/25 10:33:17;;;;;;;9.27;2.10;;;11.10;99.90;;;;;;5012819;28;20173;-81
2023/03/25 10:35:47;;;;;;;13.50;2.17;;;11.00;99.90;;;;;;5005803;28;20454;-81
2023/03/25 10:38:20;;;;;;;9.38;1.80;;;11.00;99.90;;;;;;5002514;28;20092;-81
2023/03/25 10:40:51;;;;;;;12.82;1.55;;;11.00;99.90;;;;;;4997130;28;20387;-81
2023/03/25 10:43:33;;;;;;;9.35;1.70;;;11.10;99.90;;;;;;5013524;28;20046;-81
2023/03/25 10:46:23;;;;;;;11.02;1.88;;;11.00;99.90;;;;;;4997112;28;20505;-81
2023/03/25 10:48:49;;;;;;;12.02;2.47;;;11.00;99.90;;;;;;5012142;28;20042;-81
2023/03/25 10:51:23;;;;;;;10.90;1.60;;;11.10;99.90;;;;;;5013047;28;20042;-79
2023/03/25 10:53:51;;;;;;;12.40;1.95;;;11.00;99.90;;;;;;4986965;28;20077;-80
2023/03/25 10:56:38;;;;;;;9.93;1.30;;;11.00;99.90;;;;;;4994828;28;20099;-81
2023/03/25 10:59:16;;;;;;;6.80;1.73;;;10.90;99.90;;;;;;5013072;28;20038;-82
2023/03/25 11:01:42;;;;;;;10.32;1.73;;;11.00;99.90;;;;;;4996108;28;20087;-80
2023/03/25 11:04:15;;;;;;;13.25;1.60;;;11.00;99.90;;;;;;5013129;28;20030;-81
2023/03/25 11:06:47;;;;;;;14.07;2.33;;;11.00;99.90;;;;;;5014994;28;20433;-79
2023/03/25 11:09:24;;;;;;;11.65;1.45;;;11.00;99.90;;;;;;4997645;28;20183;-81
2023/03/25 11:11:51;;;;;;;7.72;1.20;;;11.10;99.90;;;;;;5013486;28;20120;-80
2023/03/25 11:14:25;;;;;;;13.93;2.13;;;11.10;99.90;;;;;;5011923;28;20073;-80
2023/03/25 11:17:02;;;;;;;9.25;1.60;;;11.20;99.90;;;;;;5012481;28;20044;-80
2023/03/25 11:19:49;;;;;;;14.65;2.00;;;11.20;99.90;;;;;;5012760;28;20037;-81
2023/03/25 11:22:21;;;;;;;9.55;1.58;;;11.40;99.90;;;;;;5010011;28;20494;-81
2023/03/25 11:24:53;;;;;;;11.15;1.52;;;11.60;99.90;;;;;;5011635;28;20517;-83
2023/03/25 11:27:23;;;;;;;15.93;2.50;;;11.60;99.90;;;;;;5016435;28;20498;-82
2023/03/25 11:29:55;;;;;;;10.50;1.80;;;11.50;99.90;;;;;;5016711;28;20157;-82
2023/03/25 11:32:34;;;;;;;10.48;1.33;;;11.50;99.90;;;;;;4995890;28;20398;-80
2023/03/25 11:35:06;;;;;;;8.68;1.45;;;11.60;99.90;;;;;;5011010;28;20038;-78
2023/03/25 11:37:41;;;;;;;5.47;1.40;;;11.80;99.90;;;;;;5009868;28;20046;-81
2023/03/25 11:40:14;;;;;;;9.20;1.58;;;11.80;99.90;;;;;;4996544;28;20030;-81
2023/03/25 11:42:48;;;;;;;10.70;1.75;;;11.80;99.90;;;;;;4991931;28;20038;-81
2023/03/25 11:45:25;;;;;;;9.30;1.75;;;11.80;99.90;;;;;;4995463;28;20069;-80
2023/03/25 11:47:56;;;;;;;8.18;1.25;;;12.00;99.90;;;;;;5001920;28;20124;-81
2023/03/25 11:50:25;;;;;;;8.82;1.42;;;11.90;99.90;;;;;;4995101;28;20034;-80
2023/03/25 11:52:57;;;;;;;5.47;1.25;;;11.90;99.90;;;;;;5012855;28;20034;-82
2023/03/25 11:55:29;;;;;;;7.05;1.20;;;12.40;99.90;;;;;;5012845;28;20052;-83
2023/03/25 11:57:58;;;;;;;9.85;1.45;;;13.10;99.90;;;;;;5009547;28;20541;-80
2023/03/25 12:00:24;;;;;;;9.88;1.20;;;13.80;99.90;;;;;;5011289;28;20073;-81
2023/03/25 12:03:03;;;;;;;7.60;2.03;;;14.30;99.90;;;;;;4994775;28;20073;-83
2023/03/25 12:05:30;;;;;;;9.45;1.35;;;14.00;99.90;;;;;;5011419;28;20513;-83
2023/03/25 12:08:16;;;;;;;8.13;1.60;;;13.50;99.90;;;;;;4994785;28;20124;-83
2023/03/25 12:10:51;;;;;;;7.05;1.23;;;13.30;99.90;;;;;;4993577;28;20029;-84
2023/03/25 12:13:46;;;;;;;11.15;1.38;;;13.20;99.90;;;;;;4995278;28;20135;-86
2023/03/25 12:16:39;;;;;;;7.15;1.52;;;13.10;99.90;;;;;;5011713;28;20042;-84
2023/03/25 12:19:23;;;;;;;4.78;1.00;;;13.20;99.90;;;;;;5009956;28;20033;-81
2023/03/25 12:22:02;;;;;;;7.30;1.35;;;13.10;99.90;;;;;;5011528;28;20121;-81
2023/03/25 12:24:52;;;;;;;6.57;0.93;;;12.90;99.90;;;;;;5011127;28;20046;-81
2023/03/25 12:27:53;;;;;;;13.15;1.60;;;12.70;99.90;;;;;;4994491;28;20065;-82
2023/03/25 12:30:32;;;;;;;8.77;1.75;;;12.60;99.90;;;;;;4987466;28;20383;-82
2023/03/25 12:33:29;;;;;;;8.82;1.30;;;12.50;99.90;;;;;;5010774;28;20453;-82
2023/03/25 12:36:16;;;;;;;9.35;1.42;;;12.40;99.90;;;;;;5010100;28;20053;-82
2023/03/25 12:39:13;;;;;;;6.15;1.23;;;12.60;99.90;;;;;;4994496;28;20030;-82
2023/03/25 12:41:54;;;;;;;6.93;1.00;;;13.20;99.90;;;;;;5003382;28;20034;-82
2023/03/25 12:44:50;;;;;;;11.98;1.52;;;13.70;99.90;;;;;;4996031;28;20063;-83
2023/03/25 12:47:57;;;;;;;4.90;1.10;;;13.50;99.90;;;;;;4992967;28;20100;-82
2023/03/25 12:50:50;;;;;;;7.60;1.40;;;13.20;99.90;;;;;;4995831;28;20065;-83
2023/03/25 12:53:40;;;;;;;6.43;1.08;;;13.10;99.90;;;;;;4989964;28;20145;-82
2023/03/25 12:56:09;;;;;;;5.45;1.15;;;13.00;99.90;;;;;;5011501;28;20485;-81
2023/03/25 12:58:44;;;;;;;6.68;1.02;;;12.80;99.90;;;;;;4992594;28;20034;-82
2023/03/25 13:01:47;;;;;;;7.97;1.35;;;12.60;99.90;;;;;;5011387;28;20037;-82
2023/03/25 13:04:22;;;;;;;6.03;0.93;;;12.60;99.90;;;;;;4949247;28;20117;-82
2023/03/25 13:07:12;;;;;;;8.27;1.80;;;12.50;99.90;;;;;;4989347;28;20049;-82
2023/03/25 13:10:19;;;;;;;8.30;1.50;;;12.40;99.90;;;;;;5008672;28;20038;-81
2023/03/25 13:13:00;;;;;;;12.05;1.48;;;11.90;99.90;;;;;;5001737;28;20061;-81
2023/03/25 13:15:40;;;;;;;9.10;1.25;;;11.70;99.90;;;;;;5000371;28;20049;-81